sensor_id;sensor_type;location;lat;lon;timestamp;P1;durP1;ratioP1;P2;durP2;ratioP2
45764;SDS011;31474;45.332;10.230;2023-06-22T00:00:52;24.73;;;17.30;;
45764;SDS011;31474;45.332;10.230;2023-06-22T00:03:19;23.63;;;17.27;;
45764;SDS011;31474;45.332;10.230;2023-06-22T00:05:46;29.98;;;17.05;;
45764;SDS011;31474;45.332;10.230;2023-06-22T00:08:12;24.90;;;16.38;;
45764;SDS011;31474;45.332;10.230;2023-06-22T00:10:38;21.35;;;16.88;;
45764;SDS011;31474;45.332;10.230;2023-06-22T00:13:05;22.58;;;16.15;;
45764;SDS011;31474;45.332;10.230;2023-06-22T00:15:32;29.23;;;15.90;;
45764;SDS011;31474;45.332;10.230;2023-06-22T00:17:57;23.58;;;15.98;;
45764;SDS011;31474;45.332;10.230;2023-06-22T00:20:24;22.88;;;16.42;;
45764;SDS011;31474;45.332;10.230;2023-06-22T00:22:56;26.73;;;17.38;;
45764;SDS011;31474;45.332;10.230;2023-06-22T00:25:22;26.42;;;16.70;;
45764;SDS011;31474;45.332;10.230;2023-06-22T00:27:48;24.08;;;16.60;;
45764;SDS011;31474;45.332;10.230;2023-06-22T00:30:15;21.85;;;16.70;;
45764;SDS011;31474;45.332;10.230;2023-06-22T00:32:42;29.85;;;17.90;;
45764;SDS011;31474;45.332;10.230;2023-06-22T00:35:08;21.65;;;16.83;;
45764;SDS011;31474;45.332;10.230;2023-06-22T00:37:35;24.63;;;17.90;;
45764;SDS011;31474;45.332;10.230;2023-06-22T00:40:01;31.15;;;18.00;;
45764;SDS011;31474;45.332;10.230;2023-06-22T00:42:27;32.55;;;18.55;;
45764;SDS011;31474;45.332;10.230;2023-06-22T00:44:53;32.97;;;18.48;;
45764;SDS011;31474;45.332;10.230;2023-06-22T00:47:19;37.65;;;19.42;;
45764;SDS011;31474;45.332;10.230;2023-06-22T00:49:45;35.22;;;18.60;;
45764;SDS011;31474;45.332;10.230;2023-06-22T00:52:16;32.53;;;19.45;;
45764;SDS011;31474;45.332;10.230;2023-06-22T00:54:49;32.35;;;18.58;;
45764;SDS011;31474;45.332;10.230;2023-06-22T00:57:16;35.10;;;19.08;;
45764;SDS011;31474;45.332;10.230;2023-06-22T00:59:43;31.45;;;19.00;;
45764;SDS011;31474;45.332;10.230;2023-06-22T01:02:10;32.47;;;19.17;;
45764;SDS011;31474;45.332;10.230;2023-06-22T01:04:36;31.33;;;17.85;;
45764;SDS011;31474;45.332;10.230;2023-06-22T01:12:44;31.17;;;17.87;;
45764;SDS011;31474;45.332;10.230;2023-06-22T01:15:28;31.83;;;19.05;;
45764;SDS011;31474;45.332;10.230;2023-06-22T01:18:02;27.55;;;18.63;;
45764;SDS011;31474;45.332;10.230;2023-06-22T01:20:30;33.78;;;19.08;;
45764;SDS011;31474;45.332;10.230;2023-06-22T01:25:35;24.08;;;18.52;;
45764;SDS011;31474;45.332;10.230;2023-06-22T01:31:19;26.20;;;19.65;;
45764;SDS011;31474;45.332;10.230;2023-06-22T01:33:49;31.95;;;19.17;;
45764;SDS011;31474;45.332;10.230;2023-06-22T01:36:18;24.63;;;19.10;;
45764;SDS011;31474;45.332;10.230;2023-06-22T01:38:46;31.10;;;19.15;;
45764;SDS011;31474;45.332;10.230;2023-06-22T01:41:13;27.42;;;18.85;;
45764;SDS011;31474;45.332;10.230;2023-06-22T01:43:39;28.52;;;20.00;;
45764;SDS011;31474;45.332;10.230;2023-06-22T01:46:06;24.58;;;18.73;;
45764;SDS011;31474;45.332;10.230;2023-06-22T01:48:33;31.42;;;18.80;;
45764;SDS011;31474;45.332;10.230;2023-06-22T01:50:59;28.38;;;19.77;;
45764;SDS011;31474;45.332;10.230;2023-06-22T01:53:25;26.67;;;19.67;;
45764;SDS011;31474;45.332;10.230;2023-06-22T01:55:51;27.95;;;18.38;;
45764;SDS011;31474;45.332;10.230;2023-06-22T01:58:17;29.02;;;18.23;;
45764;SDS011;31474;45.332;10.230;2023-06-22T02:00:50;24.30;;;18.75;;
45764;SDS011;31474;45.332;10.230;2023-06-22T02:03:25;23.88;;;17.92;;
45764;SDS011;31474;45.332;10.230;2023-06-22T02:05:58;23.55;;;17.63;;
45764;SDS011;31474;45.332;10.230;2023-06-22T02:08:29;24.83;;;18.75;;
45764;SDS011;31474;45.332;10.230;2023-06-22T02:11:00;23.70;;;18.45;;
45764;SDS011;31474;45.332;10.230;2023-06-22T02:13:28;27.17;;;17.92;;
45764;SDS011;31474;45.332;10.230;2023-06-22T02:15:54;27.15;;;18.55;;
45764;SDS011;31474;45.332;10.230;2023-06-22T02:18:20;26.05;;;17.77;;
45764;SDS011;31474;45.332;10.230;2023-06-22T02:20:46;34.58;;;18.85;;
45764;SDS011;31474;45.332;10.230;2023-06-22T02:23:12;25.75;;;16.90;;
45764;SDS011;31474;45.332;10.230;2023-06-22T02:25:37;24.25;;;17.35;;
45764;SDS011;31474;45.332;10.230;2023-06-22T02:28:03;28.90;;;18.92;;
45764;SDS011;31474;45.332;10.230;2023-06-22T02:30:29;29.90;;;19.38;;
45764;SDS011;31474;45.332;10.230;2023-06-22T02:32:55;23.70;;;17.52;;
45764;SDS011;31474;45.332;10.230;2023-06-22T02:35:27;25.17;;;17.92;;
45764;SDS011;31474;45.332;10.230;2023-06-22T02:40:25;26.55;;;18.85;;
45764;SDS011;31474;45.332;10.230;2023-06-22T02:42:51;27.55;;;19.50;;
45764;SDS011;31474;45.332;10.230;2023-06-22T02:45:17;28.08;;;19.80;;
45764;SDS011;31474;45.332;10.230;2023-06-22T02:47:43;27.15;;;20.30;;
45764;SDS011;31474;45.332;10.230;2023-06-22T02:50:09;30.77;;;20.77;;
45764;SDS011;31474;45.332;10.230;2023-06-22T02:52:35;29.70;;;20.25;;
45764;SDS011;31474;45.332;10.230;2023-06-22T02:55:01;38.97;;;21.05;;
45764;SDS011;31474;45.332;10.230;2023-06-22T02:57:27;30.10;;;19.17;;
45764;SDS011;31474;45.332;10.230;2023-06-22T02:59:52;31.77;;;20.20;;
45764;SDS011;31474;45.332;10.230;2023-06-22T03:02:18;32.25;;;20.13;;
45764;SDS011;31474;45.332;10.230;2023-06-22T03:04:46;27.65;;;21.25;;
45764;SDS011;31474;45.332;10.230;2023-06-22T03:07:14;30.77;;;20.50;;
45764;SDS011;31474;45.332;10.230;2023-06-22T03:09:42;25.83;;;20.02;;
45764;SDS011;31474;45.332;10.230;2023-06-22T03:12:08;29.85;;;20.40;;
45764;SDS011;31474;45.332;10.230;2023-06-22T03:14:34;30.55;;;21.52;;
45764;SDS011;31474;45.332;10.230;2023-06-22T03:16:59;26.27;;;19.88;;
45764;SDS011;31474;45.332;10.230;2023-06-22T03:19:28;28.63;;;19.73;;
45764;SDS011;31474;45.332;10.230;2023-06-22T03:21:56;29.98;;;20.10;;
45764;SDS011;31474;45.332;10.230;2023-06-22T03:24:22;30.13;;;19.92;;
45764;SDS011;31474;45.332;10.230;2023-06-22T03:26:48;32.75;;;21.17;;
45764;SDS011;31474;45.332;10.230;2023-06-22T03:29:13;30.48;;;19.65;;
45764;SDS011;31474;45.332;10.230;2023-06-22T03:31:40;31.95;;;21.88;;
45764;SDS011;31474;45.332;10.230;2023-06-22T03:34:06;34.05;;;20.77;;
45764;SDS011;31474;45.332;10.230;2023-06-22T03:36:32;30.02;;;21.10;;
45764;SDS011;31474;45.332;10.230;2023-06-22T03:38:57;26.95;;;20.73;;
45764;SDS011;31474;45.332;10.230;2023-06-22T03:41:23;29.98;;;20.13;;
45764;SDS011;31474;45.332;10.230;2023-06-22T03:43:49;28.77;;;20.77;;
45764;SDS011;31474;45.332;10.230;2023-06-22T03:46:15;29.38;;;21.35;;
45764;SDS011;31474;45.332;10.230;2023-06-22T03:48:40;35.00;;;21.52;;
45764;SDS011;31474;45.332;10.230;2023-06-22T03:51:06;30.15;;;19.70;;
45764;SDS011;31474;45.332;10.230;2023-06-22T03:53:31;36.15;;;21.05;;
45764;SDS011;31474;45.332;10.230;2023-06-22T03:55:57;27.92;;;20.63;;
45764;SDS011;31474;45.332;10.230;2023-06-22T03:58:23;25.13;;;20.88;;
45764;SDS011;31474;45.332;10.230;2023-06-22T04:00:49;30.02;;;19.92;;
45764;SDS011;31474;45.332;10.230;2023-06-22T04:03:16;34.78;;;22.02;;
45764;SDS011;31474;45.332;10.230;2023-06-22T04:05:45;30.38;;;21.65;;
45764;SDS011;31474;45.332;10.230;2023-06-22T04:08:12;32.88;;;18.45;;
45764;SDS011;31474;45.332;10.230;2023-06-22T04:10:38;32.35;;;21.55;;
45764;SDS011;31474;45.332;10.230;2023-06-22T04:13:04;31.85;;;21.35;;
45764;SDS011;31474;45.332;10.230;2023-06-22T04:15:30;29.92;;;21.05;;
45764;SDS011;31474;45.332;10.230;2023-06-22T04:17:55;27.63;;;21.38;;
45764;SDS011;31474;45.332;10.230;2023-06-22T04:20:22;30.65;;;22.17;;
45764;SDS011;31474;45.332;10.230;2023-06-22T04:22:51;32.92;;;22.35;;
45764;SDS011;31474;45.332;10.230;2023-06-22T04:25:20;35.78;;;23.73;;
45764;SDS011;31474;45.332;10.230;2023-06-22T04:27:46;32.58;;;22.70;;
45764;SDS011;31474;45.332;10.230;2023-06-22T04:30:12;35.67;;;23.17;;
45764;SDS011;31474;45.332;10.230;2023-06-22T04:32:40;32.33;;;24.23;;
45764;SDS011;31474;45.332;10.230;2023-06-22T04:35:06;34.03;;;25.38;;
45764;SDS011;31474;45.332;10.230;2023-06-22T04:37:32;35.95;;;23.42;;
45764;SDS011;31474;45.332;10.230;2023-06-22T04:39:58;34.88;;;25.13;;
45764;SDS011;31474;45.332;10.230;2023-06-22T04:42:27;37.35;;;25.83;;
45764;SDS011;31474;45.332;10.230;2023-06-22T04:44:53;35.20;;;24.45;;
45764;SDS011;31474;45.332;10.230;2023-06-22T04:47:19;36.78;;;24.05;;
45764;SDS011;31474;45.332;10.230;2023-06-22T04:49:45;39.10;;;26.33;;
45764;SDS011;31474;45.332;10.230;2023-06-22T04:52:11;34.97;;;23.77;;
45764;SDS011;31474;45.332;10.230;2023-06-22T04:54:38;42.58;;;25.48;;
45764;SDS011;31474;45.332;10.230;2023-06-22T04:57:12;59.88;;;25.92;;
45764;SDS011;31474;45.332;10.230;2023-06-22T04:59:39;35.83;;;24.40;;
45764;SDS011;31474;45.332;10.230;2023-06-22T05:02:06;34.83;;;25.25;;
45764;SDS011;31474;45.332;10.230;2023-06-22T05:04:33;35.63;;;24.65;;
45764;SDS011;31474;45.332;10.230;2023-06-22T05:07:00;30.60;;;23.95;;
45764;SDS011;31474;45.332;10.230;2023-06-22T05:09:27;34.47;;;23.63;;
45764;SDS011;31474;45.332;10.230;2023-06-22T05:11:53;29.30;;;22.83;;
45764;SDS011;31474;45.332;10.230;2023-06-22T05:14:19;38.58;;;24.52;;
45764;SDS011;31474;45.332;10.230;2023-06-22T05:16:45;32.42;;;24.45;;
45764;SDS011;31474;45.332;10.230;2023-06-22T05:19:11;30.65;;;22.77;;
45764;SDS011;31474;45.332;10.230;2023-06-22T05:21:37;38.78;;;24.85;;
45764;SDS011;31474;45.332;10.230;2023-06-22T05:24:03;32.15;;;23.20;;
45764;SDS011;31474;45.332;10.230;2023-06-22T05:26:29;34.92;;;26.30;;
45764;SDS011;31474;45.332;10.230;2023-06-22T05:28:56;37.83;;;26.20;;
45764;SDS011;31474;45.332;10.230;2023-06-22T05:31:22;35.20;;;25.05;;
45764;SDS011;31474;45.332;10.230;2023-06-22T05:33:48;39.55;;;26.00;;
45764;SDS011;31474;45.332;10.230;2023-06-22T05:36:16;40.25;;;27.98;;
45764;SDS011;31474;45.332;10.230;2023-06-22T05:38:42;42.28;;;27.52;;
45764;SDS011;31474;45.332;10.230;2023-06-22T05:41:07;40.47;;;26.67;;
45764;SDS011;31474;45.332;10.230;2023-06-22T05:43:33;41.78;;;25.92;;
45764;SDS011;31474;45.332;10.230;2023-06-22T05:46:00;36.78;;;26.33;;
45764;SDS011;31474;45.332;10.230;2023-06-22T05:48:27;37.40;;;25.92;;
45764;SDS011;31474;45.332;10.230;2023-06-22T05:50:53;36.42;;;26.02;;
45764;SDS011;31474;45.332;10.230;2023-06-22T05:53:19;32.88;;;25.02;;
45764;SDS011;31474;45.332;10.230;2023-06-22T05:55:44;38.72;;;25.45;;
45764;SDS011;31474;45.332;10.230;2023-06-22T05:58:10;38.17;;;23.75;;
45764;SDS011;31474;45.332;10.230;2023-06-22T06:00:36;36.65;;;22.10;;
45764;SDS011;31474;45.332;10.230;2023-06-22T06:03:02;35.42;;;22.88;;
45764;SDS011;31474;45.332;10.230;2023-06-22T06:05:31;30.13;;;21.92;;
45764;SDS011;31474;45.332;10.230;2023-06-22T06:07:58;27.13;;;19.02;;
45764;SDS011;31474;45.332;10.230;2023-06-22T06:10:25;27.70;;;17.45;;
45764;SDS011;31474;45.332;10.230;2023-06-22T06:12:51;30.13;;;17.55;;
45764;SDS011;31474;45.332;10.230;2023-06-22T06:15:17;24.35;;;18.27;;
45764;SDS011;31474;45.332;10.230;2023-06-22T06:17:52;32.13;;;18.38;;
45764;SDS011;31474;45.332;10.230;2023-06-22T06:20:18;24.45;;;17.02;;
45764;SDS011;31474;45.332;10.230;2023-06-22T06:22:48;34.08;;;17.23;;
45764;SDS011;31474;45.332;10.230;2023-06-22T06:25:14;26.80;;;16.00;;
45764;SDS011;31474;45.332;10.230;2023-06-22T06:27:48;24.98;;;15.90;;
45764;SDS011;31474;45.332;10.230;2023-06-22T06:30:15;33.60;;;16.60;;
45764;SDS011;31474;45.332;10.230;2023-06-22T06:32:42;30.40;;;16.52;;
45764;SDS011;31474;45.332;10.230;2023-06-22T06:35:10;28.02;;;16.83;;
45764;SDS011;31474;45.332;10.230;2023-06-22T06:37:38;28.35;;;14.25;;
45764;SDS011;31474;45.332;10.230;2023-06-22T06:40:06;24.55;;;12.27;;
45764;SDS011;31474;45.332;10.230;2023-06-22T06:42:53;20.73;;;12.77;;
45764;SDS011;31474;45.332;10.230;2023-06-22T06:45:22;21.40;;;12.18;;
45764;SDS011;31474;45.332;10.230;2023-06-22T06:47:49;20.15;;;11.43;;
45764;SDS011;31474;45.332;10.230;2023-06-22T06:50:16;15.25;;;9.85;;
45764;SDS011;31474;45.332;10.230;2023-06-22T06:52:42;15.95;;;9.52;;
45764;SDS011;31474;45.332;10.230;2023-06-22T06:55:08;23.52;;;9.63;;
45764;SDS011;31474;45.332;10.230;2023-06-22T06:57:38;18.45;;;8.95;;
45764;SDS011;31474;45.332;10.230;2023-06-22T07:00:05;23.08;;;8.63;;
45764;SDS011;31474;45.332;10.230;2023-06-22T07:02:34;17.25;;;8.32;;
45764;SDS011;31474;45.332;10.230;2023-06-22T07:05:00;14.13;;;8.65;;
45764;SDS011;31474;45.332;10.230;2023-06-22T07:07:29;22.50;;;8.88;;
45764;SDS011;31474;45.332;10.230;2023-06-22T07:09:55;20.05;;;10.45;;
45764;SDS011;31474;45.332;10.230;2023-06-22T07:12:21;17.63;;;9.32;;
45764;SDS011;31474;45.332;10.230;2023-06-22T07:14:46;16.13;;;9.88;;
45764;SDS011;31474;45.332;10.230;2023-06-22T07:17:12;22.48;;;9.65;;
45764;SDS011;31474;45.332;10.230;2023-06-22T07:19:38;14.77;;;9.57;;
45764;SDS011;31474;45.332;10.230;2023-06-22T07:22:04;16.50;;;8.77;;
45764;SDS011;31474;45.332;10.230;2023-06-22T07:24:29;15.13;;;8.40;;
45764;SDS011;31474;45.332;10.230;2023-06-22T07:26:56;18.40;;;9.07;;
45764;SDS011;31474;45.332;10.230;2023-06-22T07:29:22;17.42;;;8.48;;
45764;SDS011;31474;45.332;10.230;2023-06-22T07:31:49;19.02;;;8.60;;
45764;SDS011;31474;45.332;10.230;2023-06-22T07:34:16;14.85;;;8.52;;
45764;SDS011;31474;45.332;10.230;2023-06-22T07:36:42;12.75;;;8.02;;
45764;SDS011;31474;45.332;10.230;2023-06-22T07:39:08;14.38;;;8.32;;
45764;SDS011;31474;45.332;10.230;2023-06-22T07:41:34;18.90;;;9.02;;
45764;SDS011;31474;45.332;10.230;2023-06-22T07:43:59;15.23;;;10.07;;
45764;SDS011;31474;45.332;10.230;2023-06-22T07:46:25;15.02;;;10.00;;
45764;SDS011;31474;45.332;10.230;2023-06-22T07:48:51;19.10;;;11.95;;
45764;SDS011;31474;45.332;10.230;2023-06-22T07:51:16;21.15;;;13.73;;
45764;SDS011;31474;45.332;10.230;2023-06-22T07:53:43;23.30;;;15.98;;
45764;SDS011;31474;45.332;10.230;2023-06-22T07:56:12;26.13;;;15.05;;
45764;SDS011;31474;45.332;10.230;2023-06-22T07:58:39;21.95;;;13.32;;
45764;SDS011;31474;45.332;10.230;2023-06-22T08:01:05;22.77;;;14.18;;
45764;SDS011;31474;45.332;10.230;2023-06-22T08:03:31;29.88;;;16.25;;
45764;SDS011;31474;45.332;10.230;2023-06-22T08:05:57;24.48;;;15.57;;
45764;SDS011;31474;45.332;10.230;2023-06-22T08:08:23;21.88;;;16.27;;
45764;SDS011;31474;45.332;10.230;2023-06-22T08:10:49;20.45;;;14.88;;
45764;SDS011;31474;45.332;10.230;2023-06-22T08:13:14;22.48;;;15.45;;
45764;SDS011;31474;45.332;10.230;2023-06-22T08:15:40;20.48;;;13.55;;
45764;SDS011;31474;45.332;10.230;2023-06-22T08:18:06;22.85;;;13.93;;
45764;SDS011;31474;45.332;10.230;2023-06-22T08:20:31;26.45;;;15.00;;
45764;SDS011;31474;45.332;10.230;2023-06-22T08:22:57;23.05;;;15.00;;
45764;SDS011;31474;45.332;10.230;2023-06-22T08:25:30;20.08;;;13.15;;
45764;SDS011;31474;45.332;10.230;2023-06-22T08:27:55;16.67;;;11.88;;
45764;SDS011;31474;45.332;10.230;2023-06-22T08:30:21;20.45;;;13.80;;
45764;SDS011;31474;45.332;10.230;2023-06-22T08:32:46;20.20;;;12.77;;
45764;SDS011;31474;45.332;10.230;2023-06-22T08:35:12;29.02;;;15.73;;
45764;SDS011;31474;45.332;10.230;2023-06-22T08:37:38;26.30;;;14.52;;
45764;SDS011;31474;45.332;10.230;2023-06-22T08:40:06;20.77;;;13.75;;
45764;SDS011;31474;45.332;10.230;2023-06-22T08:42:34;22.50;;;13.98;;
45764;SDS011;31474;45.332;10.230;2023-06-22T08:45:03;23.08;;;14.40;;
45764;SDS011;31474;45.332;10.230;2023-06-22T08:47:29;19.65;;;13.55;;
45764;SDS011;31474;45.332;10.230;2023-06-22T08:49:54;33.25;;;15.45;;
45764;SDS011;31474;45.332;10.230;2023-06-22T08:52:20;22.55;;;13.27;;
45764;SDS011;31474;45.332;10.230;2023-06-22T08:54:48;25.13;;;13.40;;
45764;SDS011;31474;45.332;10.230;2023-06-22T08:57:14;24.50;;;13.88;;
45764;SDS011;31474;45.332;10.230;2023-06-22T08:59:41;20.00;;;11.73;;
45764;SDS011;31474;45.332;10.230;2023-06-22T09:02:07;30.02;;;13.18;;
45764;SDS011;31474;45.332;10.230;2023-06-22T09:04:32;24.77;;;13.05;;
45764;SDS011;31474;45.332;10.230;2023-06-22T09:07:02;21.15;;;12.55;;
45764;SDS011;31474;45.332;10.230;2023-06-22T09:09:28;20.20;;;12.70;;
45764;SDS011;31474;45.332;10.230;2023-06-22T09:11:53;18.83;;;11.40;;
45764;SDS011;31474;45.332;10.230;2023-06-22T09:14:19;17.50;;;11.00;;
45764;SDS011;31474;45.332;10.230;2023-06-22T09:16:45;16.17;;;9.77;;
45764;SDS011;31474;45.332;10.230;2023-06-22T09:19:10;13.57;;;9.90;;
45764;SDS011;31474;45.332;10.230;2023-06-22T09:21:37;13.82;;;8.43;;
45764;SDS011;31474;45.332;10.230;2023-06-22T09:24:03;19.10;;;9.07;;
45764;SDS011;31474;45.332;10.230;2023-06-22T09:26:29;20.40;;;8.55;;
45764;SDS011;31474;45.332;10.230;2023-06-22T09:28:55;17.38;;;8.15;;
45764;SDS011;31474;45.332;10.230;2023-06-22T09:31:20;12.43;;;7.63;;
45764;SDS011;31474;45.332;10.230;2023-06-22T09:33:53;20.33;;;9.90;;
45764;SDS011;31474;45.332;10.230;2023-06-22T09:36:19;14.15;;;9.27;;
45764;SDS011;31474;45.332;10.230;2023-06-22T09:38:48;14.40;;;8.60;;
45764;SDS011;31474;45.332;10.230;2023-06-22T09:41:20;17.75;;;9.02;;
45764;SDS011;31474;45.332;10.230;2023-06-22T09:43:45;16.25;;;10.18;;
45764;SDS011;31474;45.332;10.230;2023-06-22T09:46:11;16.85;;;10.38;;
45764;SDS011;31474;45.332;10.230;2023-06-22T09:48:37;14.15;;;8.85;;
45764;SDS011;31474;45.332;10.230;2023-06-22T09:51:02;12.25;;;9.25;;
45764;SDS011;31474;45.332;10.230;2023-06-22T09:53:28;15.48;;;8.98;;
45764;SDS011;31474;45.332;10.230;2023-06-22T09:55:54;14.98;;;10.43;;
45764;SDS011;31474;45.332;10.230;2023-06-22T09:58:19;18.23;;;10.05;;
45764;SDS011;31474;45.332;10.230;2023-06-22T10:00:45;22.10;;;11.13;;
45764;SDS011;31474;45.332;10.230;2023-06-22T10:03:11;12.15;;;8.73;;
45764;SDS011;31474;45.332;10.230;2023-06-22T10:05:37;16.08;;;9.88;;
45764;SDS011;31474;45.332;10.230;2023-06-22T10:08:02;14.90;;;8.77;;
45764;SDS011;31474;45.332;10.230;2023-06-22T10:10:28;18.73;;;9.75;;
45764;SDS011;31474;45.332;10.230;2023-06-22T10:12:55;17.05;;;10.68;;
45764;SDS011;31474;45.332;10.230;2023-06-22T10:15:22;17.20;;;10.23;;
45764;SDS011;31474;45.332;10.230;2023-06-22T10:17:48;19.42;;;10.02;;
45764;SDS011;31474;45.332;10.230;2023-06-22T10:20:13;15.90;;;10.40;;
45764;SDS011;31474;45.332;10.230;2023-06-22T10:22:43;15.77;;;9.35;;
45764;SDS011;31474;45.332;10.230;2023-06-22T10:25:10;17.88;;;8.98;;
45764;SDS011;31474;45.332;10.230;2023-06-22T10:27:36;14.73;;;10.77;;
45764;SDS011;31474;45.332;10.230;2023-06-22T10:30:05;14.45;;;10.38;;
45764;SDS011;31474;45.332;10.230;2023-06-22T10:32:32;22.95;;;10.95;;
45764;SDS011;31474;45.332;10.230;2023-06-22T10:34:58;19.38;;;10.70;;
45764;SDS011;31474;45.332;10.230;2023-06-22T10:37:23;21.08;;;11.15;;
45764;SDS011;31474;45.332;10.230;2023-06-22T10:39:49;18.73;;;10.63;;
45764;SDS011;31474;45.332;10.230;2023-06-22T10:42:14;19.77;;;11.05;;
45764;SDS011;31474;45.332;10.230;2023-06-22T10:44:40;20.33;;;11.70;;
45764;SDS011;31474;45.332;10.230;2023-06-22T10:47:08;17.30;;;10.35;;
45764;SDS011;31474;45.332;10.230;2023-06-22T10:49:33;19.35;;;12.95;;
45764;SDS011;31474;45.332;10.230;2023-06-22T10:51:59;17.38;;;13.23;;
45764;SDS011;31474;45.332;10.230;2023-06-22T10:54:25;18.63;;;13.13;;
45764;SDS011;31474;45.332;10.230;2023-06-22T10:56:50;19.10;;;11.52;;
45764;SDS011;31474;45.332;10.230;2023-06-22T10:59:16;21.38;;;12.27;;
45764;SDS011;31474;45.332;10.230;2023-06-22T11:01:42;18.77;;;12.38;;
45764;SDS011;31474;45.332;10.230;2023-06-22T11:04:07;19.52;;;10.95;;
45764;SDS011;31474;45.332;10.230;2023-06-22T11:06:33;18.08;;;10.02;;
45764;SDS011;31474;45.332;10.230;2023-06-22T11:08:59;22.38;;;11.23;;
45764;SDS011;31474;45.332;10.230;2023-06-22T11:11:25;13.57;;;10.32;;
45764;SDS011;31474;45.332;10.230;2023-06-22T11:13:52;17.30;;;10.60;;
45764;SDS011;31474;45.332;10.230;2023-06-22T11:16:18;20.77;;;11.32;;
45764;SDS011;31474;45.332;10.230;2023-06-22T11:18:43;14.98;;;10.55;;
45764;SDS011;31474;45.332;10.230;2023-06-22T11:21:09;19.85;;;13.32;;
45764;SDS011;31474;45.332;10.230;2023-06-22T11:23:35;21.10;;;11.75;;
45764;SDS011;31474;45.332;10.230;2023-06-22T11:26:00;15.00;;;11.88;;
45764;SDS011;31474;45.332;10.230;2023-06-22T11:28:27;23.10;;;12.95;;
45764;SDS011;31474;45.332;10.230;2023-06-22T11:30:52;16.98;;;11.35;;
45764;SDS011;31474;45.332;10.230;2023-06-22T11:33:18;14.57;;;9.50;;
45764;SDS011;31474;45.332;10.230;2023-06-22T11:35:44;14.32;;;10.00;;
45764;SDS011;31474;45.332;10.230;2023-06-22T11:38:09;14.55;;;9.40;;
45764;SDS011;31474;45.332;10.230;2023-06-22T11:40:35;18.08;;;10.32;;
45764;SDS011;31474;45.332;10.230;2023-06-22T11:43:01;19.45;;;10.55;;
45764;SDS011;31474;45.332;10.230;2023-06-22T11:45:26;18.85;;;9.43;;
45764;SDS011;31474;45.332;10.230;2023-06-22T11:47:52;19.40;;;9.73;;
45764;SDS011;31474;45.332;10.230;2023-06-22T11:50:18;12.88;;;9.18;;
45764;SDS011;31474;45.332;10.230;2023-06-22T11:52:44;11.65;;;7.88;;
45764;SDS011;31474;45.332;10.230;2023-06-22T11:55:09;12.77;;;9.55;;
45764;SDS011;31474;45.332;10.230;2023-06-22T11:57:36;14.85;;;8.55;;
45764;SDS011;31474;45.332;10.230;2023-06-22T12:00:03;13.68;;;9.93;;
45764;SDS011;31474;45.332;10.230;2023-06-22T12:02:49;14.80;;;10.15;;
45764;SDS011;31474;45.332;10.230;2023-06-22T12:05:16;13.68;;;9.45;;
45764;SDS011;31474;45.332;10.230;2023-06-22T12:07:43;18.23;;;9.90;;
45764;SDS011;31474;45.332;10.230;2023-06-22T12:10:08;19.35;;;9.05;;
45764;SDS011;31474;45.332;10.230;2023-06-22T12:12:34;13.43;;;9.27;;
45764;SDS011;31474;45.332;10.230;2023-06-22T12:15:00;18.42;;;11.23;;
45764;SDS011;31474;45.332;10.230;2023-06-22T12:17:28;18.63;;;11.05;;
45764;SDS011;31474;45.332;10.230;2023-06-22T12:19:55;20.08;;;10.15;;
45764;SDS011;31474;45.332;10.230;2023-06-22T12:22:20;15.90;;;9.25;;
45764;SDS011;31474;45.332;10.230;2023-06-22T12:24:46;13.27;;;10.23;;
45764;SDS011;31474;45.332;10.230;2023-06-22T12:27:12;18.65;;;8.82;;
45764;SDS011;31474;45.332;10.230;2023-06-22T12:29:37;18.58;;;12.18;;
45764;SDS011;31474;45.332;10.230;2023-06-22T12:32:03;13.65;;;10.88;;
45764;SDS011;31474;45.332;10.230;2023-06-22T12:34:29;13.90;;;9.63;;
45764;SDS011;31474;45.332;10.230;2023-06-22T12:36:55;16.40;;;10.70;;
45764;SDS011;31474;45.332;10.230;2023-06-22T12:39:20;14.75;;;9.10;;
45764;SDS011;31474;45.332;10.230;2023-06-22T12:41:46;18.30;;;8.88;;
45764;SDS011;31474;45.332;10.230;2023-06-22T12:44:12;19.25;;;10.35;;
45764;SDS011;31474;45.332;10.230;2023-06-22T12:46:37;13.80;;;8.40;;
45764;SDS011;31474;45.332;10.230;2023-06-22T12:49:04;15.52;;;8.23;;
45764;SDS011;31474;45.332;10.230;2023-06-22T12:51:30;9.73;;;8.00;;
45764;SDS011;31474;45.332;10.230;2023-06-22T12:53:56;13.82;;;7.80;;
45764;SDS011;31474;45.332;10.230;2023-06-22T12:56:22;20.30;;;8.98;;
45764;SDS011;31474;45.332;10.230;2023-06-22T12:58:48;10.82;;;7.53;;
45764;SDS011;31474;45.332;10.230;2023-06-22T13:01:13;10.15;;;7.47;;
45764;SDS011;31474;45.332;10.230;2023-06-22T13:03:39;11.43;;;7.70;;
45764;SDS011;31474;45.332;10.230;2023-06-22T13:06:06;14.85;;;8.90;;
45764;SDS011;31474;45.332;10.230;2023-06-22T13:08:32;21.23;;;10.20;;
45764;SDS011;31474;45.332;10.230;2023-06-22T13:10:58;13.57;;;8.95;;
45764;SDS011;31474;45.332;10.230;2023-06-22T13:13:23;12.88;;;7.47;;
45764;SDS011;31474;45.332;10.230;2023-06-22T13:15:51;12.98;;;8.35;;
45764;SDS011;31474;45.332;10.230;2023-06-22T13:18:18;12.40;;;7.57;;
45764;SDS011;31474;45.332;10.230;2023-06-22T13:20:43;14.40;;;8.38;;
45764;SDS011;31474;45.332;10.230;2023-06-22T13:23:10;11.07;;;8.50;;
45764;SDS011;31474;45.332;10.230;2023-06-22T13:25:36;11.02;;;8.55;;
45764;SDS011;31474;45.332;10.230;2023-06-22T13:28:02;12.30;;;8.18;;
45764;SDS011;31474;45.332;10.230;2023-06-22T13:30:27;17.20;;;9.60;;
45764;SDS011;31474;45.332;10.230;2023-06-22T13:32:53;11.57;;;10.20;;
45764;SDS011;31474;45.332;10.230;2023-06-22T13:35:19;18.15;;;9.43;;
45764;SDS011;31474;45.332;10.230;2023-06-22T13:37:44;13.50;;;8.35;;
45764;SDS011;31474;45.332;10.230;2023-06-22T13:40:10;15.20;;;8.52;;
45764;SDS011;31474;45.332;10.230;2023-06-22T13:42:36;13.75;;;8.82;;
45764;SDS011;31474;45.332;10.230;2023-06-22T13:45:02;13.70;;;8.40;;
45764;SDS011;31474;45.332;10.230;2023-06-22T13:47:28;13.52;;;8.73;;
45764;SDS011;31474;45.332;10.230;2023-06-22T13:49:55;14.88;;;8.00;;
45764;SDS011;31474;45.332;10.230;2023-06-22T13:52:20;11.25;;;9.07;;
45764;SDS011;31474;45.332;10.230;2023-06-22T13:54:46;14.45;;;8.30;;
45764;SDS011;31474;45.332;10.230;2023-06-22T13:57:12;13.93;;;8.40;;
45764;SDS011;31474;45.332;10.230;2023-06-22T13:59:37;15.00;;;8.10;;
45764;SDS011;31474;45.332;10.230;2023-06-22T14:02:03;13.57;;;8.13;;
45764;SDS011;31474;45.332;10.230;2023-06-22T14:04:29;18.98;;;9.20;;
45764;SDS011;31474;45.332;10.230;2023-06-22T14:06:55;15.48;;;7.75;;
45764;SDS011;31474;45.332;10.230;2023-06-22T14:09:21;12.25;;;8.18;;
45764;SDS011;31474;45.332;10.230;2023-06-22T14:11:46;16.98;;;7.03;;
45764;SDS011;31474;45.332;10.230;2023-06-22T14:14:12;10.02;;;7.32;;
45764;SDS011;31474;45.332;10.230;2023-06-22T14:16:38;13.07;;;7.63;;
45764;SDS011;31474;45.332;10.230;2023-06-22T14:19:03;7.88;;;6.13;;
45764;SDS011;31474;45.332;10.230;2023-06-22T14:21:29;9.82;;;5.80;;
45764;SDS011;31474;45.332;10.230;2023-06-22T14:23:55;15.18;;;6.45;;